Terminal Aerodrome Forecast
Issued by NWS

Current Version | Previous Version | Text Only | Print | Product List | Glossary On
Versions: 1 2 3 4 5 6 7 8 9 10 11 12 13 14 15 16 17 18 19 20 21 22 23 24 25 26 27 28
000
FTUS42 KILM 021122
TAFCRE
TAF
KCRE 021122Z 0212/0312 23010KT P6SM VCSH SCT020 BKN150
      TEMPO 0212/0216 BKN020
     FM021600 22012KT P6SM VCTS SCT020 SCT050CB BKN250
     FM022100 20012KT P6SM BKN100 OVC250
     FM030300 20013KT P6SM VCTS SCT020 SCT040CB BKN080=

USA.gov is the U.S. government's official web portal to all federal, state and local government web resources and services.